sensor_id;sensor_type;location;lat;lon;timestamp;pressure;altitude;pressure_sealevel;temperature;humidity
48563;BME280;34981;49.104;11.396;2023-12-04T00:02:02;96196.31;;;-8.64;100.00
48563;BME280;34981;49.104;11.396;2023-12-04T00:04:29;96178.34;;;-8.68;100.00
48563;BME280;34981;49.104;11.396;2023-12-04T00:06:57;96179.91;;;-8.75;100.00
48563;BME280;34981;49.104;11.396;2023-12-04T00:09:24;96178.94;;;-8.74;100.00
48563;BME280;34981;49.104;11.396;2023-12-04T00:11:52;96171.34;;;-8.67;100.00
48563;BME280;34981;49.104;11.396;2023-12-04T00:14:19;96168.59;;;-8.66;100.00
48563;BME280;34981;49.104;11.396;2023-12-04T00:16:46;96167.75;;;-8.56;100.00
48563;BME280;34981;49.104;11.396;2023-12-04T00:19:13;96169.88;;;-8.52;100.00
48563;BME280;34981;49.104;11.396;2023-12-04T00:21:41;96164.56;;;-8.78;100.00
48563;BME280;34981;49.104;11.396;2023-12-04T00:24:08;96169.44;;;-8.65;100.00
48563;BME280;34981;49.104;11.396;2023-12-04T00:26:35;96171.25;;;-8.48;100.00
48563;BME280;34981;49.104;11.396;2023-12-04T00:29:02;96191.88;;;-8.19;100.00
48563;BME280;34981;49.104;11.396;2023-12-04T00:31:29;96187.84;;;-8.31;100.00
48563;BME280;34981;49.104;11.396;2023-12-04T00:33:58;96173.19;;;-8.50;100.00
48563;BME280;34981;49.104;11.396;2023-12-04T00:36:25;96169.78;;;-8.78;100.00
48563;BME280;34981;49.104;11.396;2023-12-04T00:38:53;96175.66;;;-8.48;100.00
48563;BME280;34981;49.104;11.396;2023-12-04T00:41:20;96178.25;;;-8.31;100.00
48563;BME280;34981;49.104;11.396;2023-12-04T00:43:47;96170.34;;;-8.39;100.00
48563;BME280;34981;49.104;11.396;2023-12-04T00:46:14;96168.56;;;-8.56;100.00
48563;BME280;34981;49.104;11.396;2023-12-04T00:48:41;96171.00;;;-8.54;100.00
48563;BME280;34981;49.104;11.396;2023-12-04T00:51:08;96157.28;;;-8.74;100.00
48563;BME280;34981;49.104;11.396;2023-12-04T00:53:35;96135.81;;;-8.86;100.00
48563;BME280;34981;49.104;11.396;2023-12-04T00:56:03;96151.44;;;-8.86;100.00
48563;BME280;34981;49.104;11.396;2023-12-04T00:58:30;96150.78;;;-8.88;100.00
48563;BME280;34981;49.104;11.396;2023-12-04T01:00:57;96146.28;;;-8.95;100.00
48563;BME280;34981;49.104;11.396;2023-12-04T01:03:24;96145.19;;;-8.93;100.00
48563;BME280;34981;49.104;11.396;2023-12-04T01:05:53;96143.81;;;-8.97;100.00
48563;BME280;34981;49.104;11.396;2023-12-04T01:08:20;96148.16;;;-8.88;100.00
48563;BME280;34981;49.104;11.396;2023-12-04T01:10:49;96147.88;;;-8.85;100.00
48563;BME280;34981;49.104;11.396;2023-12-04T01:13:16;96158.00;;;-8.82;100.00
48563;BME280;34981;49.104;11.396;2023-12-04T01:15:43;96146.59;;;-8.98;100.00
48563;BME280;34981;49.104;11.396;2023-12-04T01:18:13;96162.28;;;-8.63;100.00
48563;BME280;34981;49.104;11.396;2023-12-04T01:20:41;96151.69;;;-8.79;100.00
48563;BME280;34981;49.104;11.396;2023-12-04T01:23:08;96161.19;;;-8.88;100.00
48563;BME280;34981;49.104;11.396;2023-12-04T01:25:35;96161.66;;;-9.02;100.00
48563;BME280;34981;49.104;11.396;2023-12-04T01:28:02;96165.81;;;-8.82;100.00
48563;BME280;34981;49.104;11.396;2023-12-04T01:30:29;96160.22;;;-8.87;100.00
48563;BME280;34981;49.104;11.396;2023-12-04T01:32:57;96165.44;;;-8.87;100.00
48563;BME280;34981;49.104;11.396;2023-12-04T01:35:24;96157.25;;;-8.92;100.00
48563;BME280;34981;49.104;11.396;2023-12-04T01:37:51;96149.44;;;-8.92;100.00
48563;BME280;34981;49.104;11.396;2023-12-04T01:40:18;96144.59;;;-9.14;100.00
48563;BME280;34981;49.104;11.396;2023-12-04T01:42:46;96140.88;;;-9.12;100.00
48563;BME280;34981;49.104;11.396;2023-12-04T01:45:13;96142.00;;;-9.14;100.00
48563;BME280;34981;49.104;11.396;2023-12-04T01:47:40;96166.41;;;-8.88;100.00
48563;BME280;34981;49.104;11.396;2023-12-04T01:50:08;96161.56;;;-9.10;100.00
48563;BME280;34981;49.104;11.396;2023-12-04T01:52:35;96161.56;;;-9.10;100.00
48563;BME280;34981;49.104;11.396;2023-12-04T01:55:04;96157.81;;;-8.98;100.00
48563;BME280;34981;49.104;11.396;2023-12-04T01:57:32;96157.63;;;-9.14;100.00
48563;BME280;34981;49.104;11.396;2023-12-04T02:00:00;96159.25;;;-8.86;100.00
48563;BME280;34981;49.104;11.396;2023-12-04T02:02:40;96147.44;;;-9.08;100.00
48563;BME280;34981;49.104;11.396;2023-12-04T02:05:09;96142.25;;;-9.08;100.00
48563;BME280;34981;49.104;11.396;2023-12-04T02:07:36;96157.16;;;-9.00;100.00
48563;BME280;34981;49.104;11.396;2023-12-04T02:10:06;96161.09;;;-8.96;100.00
48563;BME280;34981;49.104;11.396;2023-12-04T02:12:33;96157.03;;;-9.08;100.00
48563;BME280;34981;49.104;11.396;2023-12-04T02:15:01;96178.34;;;-8.95;100.00
48563;BME280;34981;49.104;11.396;2023-12-04T02:17:28;96166.19;;;-9.04;100.00
48563;BME280;34981;49.104;11.396;2023-12-04T02:19:56;96158.44;;;-9.14;100.00
48563;BME280;34981;49.104;11.396;2023-12-04T02:22:24;96160.75;;;-9.11;100.00
48563;BME280;34981;49.104;11.396;2023-12-04T02:24:51;96163.94;;;-8.89;100.00
48563;BME280;34981;49.104;11.396;2023-12-04T02:27:22;96164.34;;;-8.84;100.00
48563;BME280;34981;49.104;11.396;2023-12-04T02:29:51;96158.41;;;-8.77;100.00
48563;BME280;34981;49.104;11.396;2023-12-04T02:32:19;96165.13;;;-8.56;100.00
48563;BME280;34981;49.104;11.396;2023-12-04T02:34:48;96180.84;;;-8.48;100.00
48563;BME280;34981;49.104;11.396;2023-12-04T02:37:16;96156.84;;;-8.70;100.00
48563;BME280;34981;49.104;11.396;2023-12-04T02:39:44;96150.78;;;-8.88;100.00
48563;BME280;34981;49.104;11.396;2023-12-04T02:42:12;96146.03;;;-9.02;100.00
48563;BME280;34981;49.104;11.396;2023-12-04T02:44:40;96150.59;;;-8.77;100.00
48563;BME280;34981;49.104;11.396;2023-12-04T02:47:07;96143.31;;;-8.83;100.00
48563;BME280;34981;49.104;11.396;2023-12-04T02:49:34;96145.66;;;-8.80;100.00
48563;BME280;34981;49.104;11.396;2023-12-04T02:52:02;96151.91;;;-8.73;100.00
48563;BME280;34981;49.104;11.396;2023-12-04T02:57:26;96156.25;;;-8.63;100.00
48563;BME280;34981;49.104;11.396;2023-12-04T02:59:53;96155.94;;;-8.60;100.00
48563;BME280;34981;49.104;11.396;2023-12-04T03:02:20;96160.88;;;-8.57;100.00
48563;BME280;34981;49.104;11.396;2023-12-04T03:04:47;96141.78;;;-8.76;100.00
48563;BME280;34981;49.104;11.396;2023-12-04T03:07:14;96129.59;;;-9.02;100.00
48563;BME280;34981;49.104;11.396;2023-12-04T03:09:42;96113.75;;;-9.36;100.00
48563;BME280;34981;49.104;11.396;2023-12-04T03:12:18;96106.03;;;-9.28;100.00
48563;BME280;34981;49.104;11.396;2023-12-04T03:14:45;96117.50;;;-9.21;100.00
48563;BME280;34981;49.104;11.396;2023-12-04T03:17:12;96108.13;;;-9.41;100.00
48563;BME280;34981;49.104;11.396;2023-12-04T03:19:39;96096.28;;;-9.63;100.00
48563;BME280;34981;49.104;11.396;2023-12-04T03:22:06;96103.97;;;-9.34;100.00
48563;BME280;34981;49.104;11.396;2023-12-04T03:24:34;96110.19;;;-9.35;100.00
48563;BME280;34981;49.104;11.396;2023-12-04T03:27:02;96097.34;;;-9.56;100.00
48563;BME280;34981;49.104;11.396;2023-12-04T03:29:29;96093.94;;;-9.57;100.00
48563;BME280;34981;49.104;11.396;2023-12-04T03:31:56;96088.72;;;-9.57;100.00
48563;BME280;34981;49.104;11.396;2023-12-04T03:34:23;96097.53;;;-9.58;100.00
48563;BME280;34981;49.104;11.396;2023-12-04T03:36:51;96108.47;;;-9.27;100.00
48563;BME280;34981;49.104;11.396;2023-12-04T03:39:18;96104.97;;;-9.35;100.00
48563;BME280;34981;49.104;11.396;2023-12-04T03:41:46;96091.69;;;-9.42;100.00
48563;BME280;34981;49.104;11.396;2023-12-04T03:44:13;96095.09;;;-9.41;100.00
48563;BME280;34981;49.104;11.396;2023-12-04T03:46:41;96093.06;;;-9.38;100.00
48563;BME280;34981;49.104;11.396;2023-12-04T03:49:08;96091.44;;;-9.49;100.00
48563;BME280;34981;49.104;11.396;2023-12-04T03:51:35;96093.28;;;-9.31;100.00
48563;BME280;34981;49.104;11.396;2023-12-04T03:54:02;96093.16;;;-9.30;100.00
48563;BME280;34981;49.104;11.396;2023-12-04T03:56:29;96075.31;;;-9.52;100.00
48563;BME280;34981;49.104;11.396;2023-12-04T03:58:57;96085.63;;;-9.33;100.00
48563;BME280;34981;49.104;11.396;2023-12-04T04:01:24;96097.91;;;-9.25;100.00
48563;BME280;34981;49.104;11.396;2023-12-04T04:03:51;96092.03;;;-9.27;100.00
48563;BME280;34981;49.104;11.396;2023-12-04T04:06:19;96089.63;;;-9.11;100.00
48563;BME280;34981;49.104;11.396;2023-12-04T04:08:46;96103.78;;;-8.96;100.00
48563;BME280;34981;49.104;11.396;2023-12-04T04:11:13;96099.31;;;-9.03;100.00
48563;BME280;34981;49.104;11.396;2023-12-04T04:13:40;96093.53;;;-9.25;100.00
48563;BME280;34981;49.104;11.396;2023-12-04T04:16:07;96103.84;;;-9.06;100.00
48563;BME280;34981;49.104;11.396;2023-12-04T04:18:34;96093.97;;;-9.29;100.00
48563;BME280;34981;49.104;11.396;2023-12-04T04:21:02;96092.19;;;-9.29;100.00
48563;BME280;34981;49.104;11.396;2023-12-04T04:23:29;96089.63;;;-9.11;100.00
48563;BME280;34981;49.104;11.396;2023-12-04T04:25:56;96087.97;;;-9.12;100.00
48563;BME280;34981;49.104;11.396;2023-12-04T04:28:23;96085.22;;;-9.28;100.00
48563;BME280;34981;49.104;11.396;2023-12-04T04:30:51;96089.34;;;-9.08;100.00
48563;BME280;34981;49.104;11.396;2023-12-04T04:33:18;96082.88;;;-9.04;100.00
48563;BME280;34981;49.104;11.396;2023-12-04T04:35:45;96078.09;;;-9.09;100.00
48563;BME280;34981;49.104;11.396;2023-12-04T04:38:12;96078.56;;;-9.13;100.00
48563;BME280;34981;49.104;11.396;2023-12-04T04:40:39;96090.53;;;-9.02;100.00
48563;BME280;34981;49.104;11.396;2023-12-04T04:43:09;96103.28;;;-8.82;100.00
48563;BME280;34981;49.104;11.396;2023-12-04T04:45:37;96088.03;;;-8.94;100.00
48563;BME280;34981;49.104;11.396;2023-12-04T04:48:04;96075.97;;;-9.13;100.00
48563;BME280;34981;49.104;11.396;2023-12-04T04:50:32;96071.63;;;-9.22;100.00
48563;BME280;34981;49.104;11.396;2023-12-04T04:52:59;96071.63;;;-9.22;100.00
48563;BME280;34981;49.104;11.396;2023-12-04T04:55:26;96078.56;;;-9.13;100.00
48563;BME280;34981;49.104;11.396;2023-12-04T04:58:13;96078.06;;;-8.99;100.00
48563;BME280;34981;49.104;11.396;2023-12-04T05:00:40;96074.28;;;-8.87;100.00
48563;BME280;34981;49.104;11.396;2023-12-04T05:03:07;96066.75;;;-8.90;100.00
48563;BME280;34981;49.104;11.396;2023-12-04T05:05:34;96067.34;;;-8.96;100.00
48563;BME280;34981;49.104;11.396;2023-12-04T05:08:02;96073.00;;;-8.83;100.00
48563;BME280;34981;49.104;11.396;2023-12-04T05:10:29;96064.63;;;-9.04;100.00
48563;BME280;34981;49.104;11.396;2023-12-04T05:12:56;96051.25;;;-9.09;100.00
48563;BME280;34981;49.104;11.396;2023-12-04T05:15:23;96049.00;;;-9.22;100.00
48563;BME280;34981;49.104;11.396;2023-12-04T05:17:51;96053.16;;;-9.11;100.00
48563;BME280;34981;49.104;11.396;2023-12-04T05:20:18;96048.94;;;-9.12;100.00
48563;BME280;34981;49.104;11.396;2023-12-04T05:22:45;96064.44;;;-8.93;100.00
48563;BME280;34981;49.104;11.396;2023-12-04T05:25:12;96053.94;;;-9.01;100.00
48563;BME280;34981;49.104;11.396;2023-12-04T05:27:39;96050.50;;;-9.01;100.00
48563;BME280;34981;49.104;11.396;2023-12-04T05:30:07;96043.88;;;-9.14;100.00
48563;BME280;34981;49.104;11.396;2023-12-04T05:32:34;96041.44;;;-9.15;100.00
48563;BME280;34981;49.104;11.396;2023-12-04T05:35:01;96043.72;;;-9.12;100.00
48563;BME280;34981;49.104;11.396;2023-12-04T05:37:28;96025.84;;;-9.25;100.00
48563;BME280;34981;49.104;11.396;2023-12-04T05:39:56;96031.97;;;-9.16;100.00
48563;BME280;34981;49.104;11.396;2023-12-04T05:42:23;96035.16;;;-9.22;100.00
48563;BME280;34981;49.104;11.396;2023-12-04T05:44:50;96041.44;;;-9.15;100.00
48563;BME280;34981;49.104;11.396;2023-12-04T05:47:17;96038.13;;;-9.17;100.00
48563;BME280;34981;49.104;11.396;2023-12-04T05:49:44;96039.56;;;-9.05;100.00
48563;BME280;34981;49.104;11.396;2023-12-04T05:52:11;96028.00;;;-9.20;100.00
48563;BME280;34981;49.104;11.396;2023-12-04T05:54:39;96037.28;;;-9.08;100.00
48563;BME280;34981;49.104;11.396;2023-12-04T05:57:06;96030.38;;;-9.27;100.00
48563;BME280;34981;49.104;11.396;2023-12-04T05:59:33;96028.38;;;-9.33;100.00
48563;BME280;34981;49.104;11.396;2023-12-04T06:02:00;96019.09;;;-9.35;100.00
48563;BME280;34981;49.104;11.396;2023-12-04T06:04:28;96022.78;;;-9.38;100.00
48563;BME280;34981;49.104;11.396;2023-12-04T06:06:55;96019.63;;;-9.41;100.00
48563;BME280;34981;49.104;11.396;2023-12-04T06:09:22;96027.31;;;-9.40;100.00
48563;BME280;34981;49.104;11.396;2023-12-04T06:11:49;96035.06;;;-9.30;100.00
48563;BME280;34981;49.104;11.396;2023-12-04T06:14:16;96035.44;;;-9.25;100.00
48563;BME280;34981;49.104;11.396;2023-12-04T06:16:43;96026.44;;;-9.31;100.00
48563;BME280;34981;49.104;11.396;2023-12-04T06:19:10;96027.53;;;-9.33;100.00
48563;BME280;34981;49.104;11.396;2023-12-04T06:21:37;96029.19;;;-9.32;100.00
48563;BME280;34981;49.104;11.396;2023-12-04T06:24:05;96033.28;;;-9.30;100.00
48563;BME280;34981;49.104;11.396;2023-12-04T06:26:34;96034.38;;;-9.32;100.00
48563;BME280;34981;49.104;11.396;2023-12-04T06:29:03;96038.41;;;-9.20;100.00
48563;BME280;34981;49.104;11.396;2023-12-04T06:31:30;96045.50;;;-9.13;100.00
48563;BME280;34981;49.104;11.396;2023-12-04T06:33:57;96039.34;;;-9.12;100.00
48563;BME280;34981;49.104;11.396;2023-12-04T06:36:25;96033.69;;;-9.07;100.00
48563;BME280;34981;49.104;11.396;2023-12-04T06:38:54;96021.66;;;-9.08;100.00
48563;BME280;34981;49.104;11.396;2023-12-04T06:41:22;96010.47;;;-9.18;100.00
48563;BME280;34981;49.104;11.396;2023-12-04T06:43:49;96019.72;;;-9.06;100.00
48563;BME280;34981;49.104;11.396;2023-12-04T06:46:19;96016.94;;;-9.05;100.00
48563;BME280;34981;49.104;11.396;2023-12-04T06:48:47;96003.63;;;-9.19;100.00
48563;BME280;34981;49.104;11.396;2023-12-04T06:51:15;95999.38;;;-9.20;100.00
48563;BME280;34981;49.104;11.396;2023-12-04T06:53:42;96002.97;;;-9.21;100.00
48563;BME280;34981;49.104;11.396;2023-12-04T06:56:09;95999.38;;;-9.20;100.00
48563;BME280;34981;49.104;11.396;2023-12-04T06:58:36;96001.69;;;-9.17;100.00
48563;BME280;34981;49.104;11.396;2023-12-04T07:01:03;95999.22;;;-9.19;100.00
48563;BME280;34981;49.104;11.396;2023-12-04T07:03:30;96007.19;;;-9.20;100.00
48563;BME280;34981;49.104;11.396;2023-12-04T07:05:58;96009.06;;;-9.13;100.00
48563;BME280;34981;49.104;11.396;2023-12-04T07:08:25;96018.31;;;-9.00;100.00
48563;BME280;34981;49.104;11.396;2023-12-04T07:10:52;96009.31;;;-9.06;100.00
48563;BME280;34981;49.104;11.396;2023-12-04T07:13:19;96014.19;;;-9.03;100.00
48563;BME280;34981;49.104;11.396;2023-12-04T07:15:46;96008.25;;;-9.13;100.00
48563;BME280;34981;49.104;11.396;2023-12-04T07:18:14;96001.91;;;-9.11;100.00
48563;BME280;34981;49.104;11.396;2023-12-04T07:20:41;95998.94;;;-9.16;100.00
48563;BME280;34981;49.104;11.396;2023-12-04T07:23:08;96011.69;;;-8.95;100.00
48563;BME280;34981;49.104;11.396;2023-12-04T07:25:35;96012.22;;;-8.91;100.00
48563;BME280;34981;49.104;11.396;2023-12-04T07:28:02;96006.84;;;-9.08;100.00
48563;BME280;34981;49.104;11.396;2023-12-04T07:30:29;96001.41;;;-9.14;100.00
48563;BME280;34981;49.104;11.396;2023-12-04T07:32:56;96006.97;;;-9.09;100.00
48563;BME280;34981;49.104;11.396;2023-12-04T07:35:24;96006.00;;;-8.90;100.00
48563;BME280;34981;49.104;11.396;2023-12-04T07:37:51;96010.19;;;-8.80;100.00
48563;BME280;34981;49.104;11.396;2023-12-04T07:40:18;96000.97;;;-8.92;100.00
48563;BME280;34981;49.104;11.396;2023-12-04T07:42:45;95994.00;;;-8.91;100.00
48563;BME280;34981;49.104;11.396;2023-12-04T07:45:12;95993.53;;;-8.87;100.00
48563;BME280;34981;49.104;11.396;2023-12-04T07:47:40;95995.03;;;-8.84;100.00
48563;BME280;34981;49.104;11.396;2023-12-04T07:50:07;96006.63;;;-8.79;100.00
48563;BME280;34981;49.104;11.396;2023-12-04T07:52:35;96016.16;;;-8.70;100.00
48563;BME280;34981;49.104;11.396;2023-12-04T07:55:02;96018.88;;;-8.53;100.00
48563;BME280;34981;49.104;11.396;2023-12-04T07:57:29;96020.31;;;-8.59;100.00
48563;BME280;34981;49.104;11.396;2023-12-04T07:59:56;96019.69;;;-8.53;100.00
48563;BME280;34981;49.104;11.396;2023-12-04T08:02:23;96031.84;;;-8.44;100.00
48563;BME280;34981;49.104;11.396;2023-12-04T08:04:51;96030.25;;;-8.37;100.00
48563;BME280;34981;49.104;11.396;2023-12-04T08:07:19;96033.56;;;-8.27;100.00
48563;BME280;34981;49.104;11.396;2023-12-04T08:09:46;96042.69;;;-8.05;100.00
48563;BME280;34981;49.104;11.396;2023-12-04T08:12:13;96044.78;;;-8.08;100.00
48563;BME280;34981;49.104;11.396;2023-12-04T08:14:40;96052.19;;;-7.96;100.00
48563;BME280;34981;49.104;11.396;2023-12-04T08:17:07;96053.75;;;-8.03;100.00
48563;BME280;34981;49.104;11.396;2023-12-04T08:19:35;96047.38;;;-8.08;100.00
48563;BME280;34981;49.104;11.396;2023-12-04T08:22:04;96042.69;;;-8.05;100.00
48563;BME280;34981;49.104;11.396;2023-12-04T08:24:32;96050.03;;;-8.00;100.00
48563;BME280;34981;49.104;11.396;2023-12-04T08:26:59;96044.69;;;-7.99;100.00
48563;BME280;34981;49.104;11.396;2023-12-04T08:29:26;96049.56;;;-7.96;100.00
48563;BME280;34981;49.104;11.396;2023-12-04T08:31:55;96054.50;;;-7.93;100.00
48563;BME280;34981;49.104;11.396;2023-12-04T08:34:22;96066.88;;;-7.95;100.00
48563;BME280;34981;49.104;11.396;2023-12-04T08:36:49;96065.28;;;-7.88;100.00
48563;BME280;34981;49.104;11.396;2023-12-04T08:39:16;96071.78;;;-7.92;100.00
48563;BME280;34981;49.104;11.396;2023-12-04T08:41:46;96077.47;;;-7.70;100.00
48563;BME280;34981;49.104;11.396;2023-12-04T08:44:27;96081.03;;;-7.71;100.00
48563;BME280;34981;49.104;11.396;2023-12-04T08:46:55;96086.16;;;-7.62;100.00
48563;BME280;34981;49.104;11.396;2023-12-04T08:49:24;96076.03;;;-7.65;100.00
48563;BME280;34981;49.104;11.396;2023-12-04T08:52:05;96080.13;;;-7.62;100.00
48563;BME280;34981;49.104;11.396;2023-12-04T08:54:32;96088.31;;;-7.57;100.00
48563;BME280;34981;49.104;11.396;2023-12-04T08:57:00;96087.19;;;-7.55;100.00
48563;BME280;34981;49.104;11.396;2023-12-04T08:59:29;96092.22;;;-7.61;100.00
48563;BME280;34981;49.104;11.396;2023-12-04T09:01:56;96102.03;;;-7.55;100.00
48563;BME280;34981;49.104;11.396;2023-12-04T09:04:23;96097.63;;;-7.55;100.00
48563;BME280;34981;49.104;11.396;2023-12-04T09:06:50;96099.31;;;-7.45;100.00
48563;BME280;34981;49.104;11.396;2023-12-04T09:09:20;96111.31;;;-7.27;100.00
48563;BME280;34981;49.104;11.396;2023-12-04T09:11:48;96115.28;;;-7.15;100.00
48563;BME280;34981;49.104;11.396;2023-12-04T09:14:15;96115.31;;;-7.07;100.00
48563;BME280;34981;49.104;11.396;2023-12-04T09:16:43;96111.25;;;-7.09;100.00
48563;BME280;34981;49.104;11.396;2023-12-04T09:19:10;96112.06;;;-7.09;100.00
48563;BME280;34981;49.104;11.396;2023-12-04T09:21:37;96096.66;;;-7.20;100.00
48563;BME280;34981;49.104;11.396;2023-12-04T09:24:05;96096.16;;;-7.23;100.00
48563;BME280;34981;49.104;11.396;2023-12-04T09:26:32;96095.19;;;-7.14;100.00
48563;BME280;34981;49.104;11.396;2023-12-04T09:28:59;96086.88;;;-7.18;100.00
48563;BME280;34981;49.104;11.396;2023-12-04T09:31:26;96092.75;;;-7.16;100.00
48563;BME280;34981;49.104;11.396;2023-12-04T09:33:53;96096.38;;;-7.09;100.00
48563;BME280;34981;49.104;11.396;2023-12-04T09:36:20;96103.91;;;-7.05;100.00
48563;BME280;34981;49.104;11.396;2023-12-04T09:38:48;96096.72;;;-7.03;100.00
48563;BME280;34981;49.104;11.396;2023-12-04T09:41:15;96108.19;;;-6.96;100.00
48563;BME280;34981;49.104;11.396;2023-12-04T09:43:43;96115.09;;;-6.87;100.00
48563;BME280;34981;49.104;11.396;2023-12-04T09:46:11;96106.56;;;-6.89;100.00
48563;BME280;34981;49.104;11.396;2023-12-04T09:48:38;96095.44;;;-6.91;100.00
48563;BME280;34981;49.104;11.396;2023-12-04T09:51:06;96094.00;;;-6.86;100.00
48563;BME280;34981;49.104;11.396;2023-12-04T09:53:33;96095.34;;;-6.82;100.00
48563;BME280;34981;49.104;11.396;2023-12-04T09:56:04;96098.81;;;-6.65;100.00
48563;BME280;34981;49.104;11.396;2023-12-04T09:58:33;96086.34;;;-6.71;100.00
48563;BME280;34981;49.104;11.396;2023-12-04T10:01:01;96078.19;;;-6.76;100.00
48563;BME280;34981;49.104;11.396;2023-12-04T10:03:29;96075.72;;;-6.78;100.00
48563;BME280;34981;49.104;11.396;2023-12-04T10:05:57;96073.78;;;-6.76;100.00
48563;BME280;34981;49.104;11.396;2023-12-04T10:08:24;96076.72;;;-6.71;100.00
48563;BME280;34981;49.104;11.396;2023-12-04T10:10:52;96067.44;;;-6.73;100.00
48563;BME280;34981;49.104;11.396;2023-12-04T10:13:19;96079.50;;;-6.64;100.00
48563;BME280;34981;49.104;11.396;2023-12-04T10:16:06;96080.19;;;-6.62;100.00
48563;BME280;34981;49.104;11.396;2023-12-04T10:18:34;96084.13;;;-6.58;100.00
48563;BME280;34981;49.104;11.396;2023-12-04T10:21:01;96089.34;;;-6.42;100.00
48563;BME280;34981;49.104;11.396;2023-12-04T10:23:39;96098.53;;;-6.38;100.00
48563;BME280;34981;49.104;11.396;2023-12-04T10:26:06;96100.16;;;-6.37;100.00
48563;BME280;34981;49.104;11.396;2023-12-04T10:28:34;96103.78;;;-6.30;100.00
48563;BME280;34981;49.104;11.396;2023-12-04T10:31:02;96096.56;;;-6.28;100.00
48563;BME280;34981;49.104;11.396;2023-12-04T10:33:29;96083.47;;;-6.28;100.00
48563;BME280;34981;49.104;11.396;2023-12-04T10:35:58;96075.63;;;-6.19;100.00
48563;BME280;34981;49.104;11.396;2023-12-04T10:38:25;96065.84;;;-6.25;100.00
48563;BME280;34981;49.104;11.396;2023-12-04T10:40:54;96060.28;;;-6.22;100.00
48563;BME280;34981;49.104;11.396;2023-12-04T10:43:21;96064.03;;;-6.09;100.00
48563;BME280;34981;49.104;11.396;2023-12-04T10:45:49;96060.78;;;-6.11;100.00
48563;BME280;34981;49.104;11.396;2023-12-04T10:48:17;96065.50;;;-6.06;100.00
48563;BME280;34981;49.104;11.396;2023-12-04T10:50:48;96070.03;;;-5.84;100.00
48563;BME280;34981;49.104;11.396;2023-12-04T10:53:17;96062.06;;;-5.91;100.00
48563;BME280;34981;49.104;11.396;2023-12-04T10:55:44;96038.97;;;-5.87;100.00
48563;BME280;34981;49.104;11.396;2023-12-04T10:58:13;96052.19;;;-5.80;100.00
48563;BME280;34981;49.104;11.396;2023-12-04T11:00:43;96040.75;;;-5.79;100.00
48563;BME280;34981;49.104;11.396;2023-12-04T11:03:55;96044.50;;;-5.82;100.00
48563;BME280;34981;49.104;11.396;2023-12-04T11:06:02;96037.34;;;-5.88;100.00
48563;BME280;34981;49.104;11.396;2023-12-04T11:08:32;96026.06;;;-5.97;100.00
48563;BME280;34981;49.104;11.396;2023-12-04T11:11:03;96020.69;;;-5.95;100.00
48563;BME280;34981;49.104;11.396;2023-12-04T11:13:32;96010.53;;;-5.98;100.00
48563;BME280;34981;49.104;11.396;2023-12-04T11:16:09;96010.53;;;-5.98;100.00
48563;BME280;34981;49.104;11.396;2023-12-04T11:18:39;96004.00;;;-6.02;100.00
48563;BME280;34981;49.104;11.396;2023-12-04T11:21:10;96002.69;;;-5.98;100.00
48563;BME280;34981;49.104;11.396;2023-12-04T11:23:38;96004.31;;;-5.89;100.00
48563;BME280;34981;49.104;11.396;2023-12-04T11:26:07;95999.44;;;-5.92;100.00
48563;BME280;34981;49.104;11.396;2023-12-04T11:28:34;96000.22;;;-5.92;100.00
48563;BME280;34981;49.104;11.396;2023-12-04T11:31:05;95993.84;;;-5.89;100.00
48563;BME280;34981;49.104;11.396;2023-12-04T11:33:36;95987.31;;;-5.93;100.00
48563;BME280;34981;49.104;11.396;2023-12-04T11:36:07;95984.06;;;-5.95;100.00
48563;BME280;34981;49.104;11.396;2023-12-04T11:38:42;95986.63;;;-5.87;100.00
48563;BME280;34981;49.104;11.396;2023-12-04T11:41:16;95987.44;;;-5.86;100.00
48563;BME280;34981;49.104;11.396;2023-12-04T11:43:49;95973.25;;;-5.92;100.00
48563;BME280;34981;49.104;11.396;2023-12-04T11:46:19;95966.38;;;-5.93;100.00
48563;BME280;34981;49.104;11.396;2023-12-04T11:48:50;95956.22;;;-5.88;100.00
48563;BME280;34981;49.104;11.396;2023-12-04T11:54:04;95941.50;;;-5.89;100.00
48563;BME280;34981;49.104;11.396;2023-12-04T11:56:31;95941.16;;;-5.86;100.00
48563;BME280;34981;49.104;11.396;2023-12-04T11:59:03;95935.28;;;-5.88;100.00
48563;BME280;34981;49.104;11.396;2023-12-04T12:01:33;95930.66;;;-5.86;100.00
48563;BME280;34981;49.104;11.396;2023-12-04T12:04:01;95922.78;;;-5.78;100.00
48563;BME280;34981;49.104;11.396;2023-12-04T12:06:29;95928.16;;;-5.71;100.00
48563;BME280;34981;49.104;11.396;2023-12-04T12:08:57;95930.25;;;-5.67;100.00
48563;BME280;34981;49.104;11.396;2023-12-04T12:11:24;95932.72;;;-5.65;100.00
48563;BME280;34981;49.104;11.396;2023-12-04T12:13:53;95932.22;;;-5.69;100.00
48563;BME280;34981;49.104;11.396;2023-12-04T12:16:20;95926.16;;;-5.69;100.00
48563;BME280;34981;49.104;11.396;2023-12-04T12:18:49;95921.44;;;-5.66;100.00
48563;BME280;34981;49.104;11.396;2023-12-04T12:21:16;95938.91;;;-5.58;100.00
48563;BME280;34981;49.104;11.396;2023-12-04T12:23:43;95926.59;;;-5.50;100.00
48563;BME280;34981;49.104;11.396;2023-12-04T12:26:13;95926.94;;;-5.53;100.00
48563;BME280;34981;49.104;11.396;2023-12-04T12:28:40;95907.00;;;-5.62;100.00
48563;BME280;34981;49.104;11.396;2023-12-04T12:31:08;95909.00;;;-5.64;100.00
48563;BME280;34981;49.104;11.396;2023-12-04T12:33:35;95912.91;;;-5.68;100.00
48563;BME280;34981;49.104;11.396;2023-12-04T12:36:02;95918.13;;;-5.60;100.00
48563;BME280;34981;49.104;11.396;2023-12-04T12:38:31;95906.38;;;-5.64;100.00
48563;BME280;34981;49.104;11.396;2023-12-04T12:41:09;95902.69;;;-5.55;100.00
48563;BME280;34981;49.104;11.396;2023-12-04T12:43:38;95897.00;;;-5.58;100.00
48563;BME280;34981;49.104;11.396;2023-12-04T12:46:06;95910.75;;;-5.56;100.00
48563;BME280;34981;49.104;11.396;2023-12-04T12:48:33;95916.13;;;-5.50;100.00
48563;BME280;34981;49.104;11.396;2023-12-04T12:51:02;95906.97;;;-5.54;100.00